sensor_id;sensor_type;location;lat;lon;timestamp;P1;durP1;ratioP1;P2;durP2;ratioP2
48835;SDS011;62581;47.342;7.908;2023-10-13T00:01:53;20.77;;;6.95;;
48835;SDS011;62581;47.342;7.908;2023-10-13T00:04:21;17.10;;;7.10;;
48835;SDS011;62581;47.342;7.908;2023-10-13T00:06:50;16.63;;;6.85;;
48835;SDS011;62581;47.342;7.908;2023-10-13T00:09:19;18.20;;;6.88;;
48835;SDS011;62581;47.342;7.908;2023-10-13T00:11:50;18.15;;;6.68;;
48835;SDS011;62581;47.342;7.908;2023-10-13T00:14:17;13.45;;;6.85;;
48835;SDS011;62581;47.342;7.908;2023-10-13T00:16:46;13.60;;;6.35;;
48835;SDS011;62581;47.342;7.908;2023-10-13T00:19:27;17.73;;;6.03;;
48835;SDS011;62581;47.342;7.908;2023-10-13T00:22:02;14.80;;;6.45;;
48835;SDS011;62581;47.342;7.908;2023-10-13T00:24:35;13.38;;;6.25;;
48835;SDS011;62581;47.342;7.908;2023-10-13T00:27:08;13.55;;;6.40;;
48835;SDS011;62581;47.342;7.908;2023-10-13T00:29:53;13.75;;;6.97;;
48835;SDS011;62581;47.342;7.908;2023-10-13T00:32:40;13.90;;;5.97;;
48835;SDS011;62581;47.342;7.908;2023-10-13T00:35:12;13.05;;;5.55;;
48835;SDS011;62581;47.342;7.908;2023-10-13T00:37:49;16.35;;;6.22;;
48835;SDS011;62581;47.342;7.908;2023-10-13T00:43:06;15.88;;;6.45;;
48835;SDS011;62581;47.342;7.908;2023-10-13T00:45:52;20.25;;;7.40;;
48835;SDS011;62581;47.342;7.908;2023-10-13T00:48:22;17.50;;;6.45;;
48835;SDS011;62581;47.342;7.908;2023-10-13T00:50:54;18.00;;;5.85;;
48835;SDS011;62581;47.342;7.908;2023-10-13T00:53:24;12.73;;;5.60;;
48835;SDS011;62581;47.342;7.908;2023-10-13T00:55:52;15.32;;;6.20;;
48835;SDS011;62581;47.342;7.908;2023-10-13T00:58:21;12.75;;;6.07;;
48835;SDS011;62581;47.342;7.908;2023-10-13T01:00:50;13.90;;;6.78;;
48835;SDS011;62581;47.342;7.908;2023-10-13T01:03:22;19.27;;;5.93;;
48835;SDS011;62581;47.342;7.908;2023-10-13T01:05:52;13.27;;;5.75;;
48835;SDS011;62581;47.342;7.908;2023-10-13T01:11:00;11.95;;;5.63;;
48835;SDS011;62581;47.342;7.908;2023-10-13T01:13:26;14.43;;;5.90;;
48835;SDS011;62581;47.342;7.908;2023-10-13T01:15:56;12.13;;;5.88;;
48835;SDS011;62581;47.342;7.908;2023-10-13T01:18:22;14.52;;;5.53;;
48835;SDS011;62581;47.342;7.908;2023-10-13T01:20:53;9.50;;;4.97;;
48835;SDS011;62581;47.342;7.908;2023-10-13T01:23:25;13.38;;;6.00;;
48835;SDS011;62581;47.342;7.908;2023-10-13T01:25:53;11.50;;;5.22;;
48835;SDS011;62581;47.342;7.908;2023-10-13T01:28:21;12.35;;;5.30;;
48835;SDS011;62581;47.342;7.908;2023-10-13T01:30:49;14.88;;;5.65;;
48835;SDS011;62581;47.342;7.908;2023-10-13T01:33:15;9.93;;;6.00;;
48835;SDS011;62581;47.342;7.908;2023-10-13T01:35:42;14.52;;;5.10;;
48835;SDS011;62581;47.342;7.908;2023-10-13T01:38:12;14.55;;;5.13;;
48835;SDS011;62581;47.342;7.908;2023-10-13T01:40:41;13.18;;;5.45;;
48835;SDS011;62581;47.342;7.908;2023-10-13T01:43:08;8.95;;;4.47;;
48835;SDS011;62581;47.342;7.908;2023-10-13T01:45:37;10.88;;;5.15;;
48835;SDS011;62581;47.342;7.908;2023-10-13T01:48:11;14.27;;;5.13;;
48835;SDS011;62581;47.342;7.908;2023-10-13T01:50:41;15.77;;;5.63;;
48835;SDS011;62581;47.342;7.908;2023-10-13T01:53:07;11.20;;;4.80;;
48835;SDS011;62581;47.342;7.908;2023-10-13T01:55:37;11.60;;;5.07;;
48835;SDS011;62581;47.342;7.908;2023-10-13T01:58:09;12.88;;;5.32;;
48835;SDS011;62581;47.342;7.908;2023-10-13T02:00:40;11.07;;;5.25;;
48835;SDS011;62581;47.342;7.908;2023-10-13T02:03:07;15.85;;;6.00;;
48835;SDS011;62581;47.342;7.908;2023-10-13T02:05:40;13.38;;;5.85;;
48835;SDS011;62581;47.342;7.908;2023-10-13T02:08:12;12.38;;;5.78;;
48835;SDS011;62581;47.342;7.908;2023-10-13T02:10:44;13.73;;;5.22;;
48835;SDS011;62581;47.342;7.908;2023-10-13T02:13:14;13.40;;;5.57;;
48835;SDS011;62581;47.342;7.908;2023-10-13T02:15:42;13.48;;;5.65;;
48835;SDS011;62581;47.342;7.908;2023-10-13T02:18:09;9.48;;;5.80;;
48835;SDS011;62581;47.342;7.908;2023-10-13T02:20:37;15.17;;;5.57;;
48835;SDS011;62581;47.342;7.908;2023-10-13T02:23:08;17.77;;;6.03;;
48835;SDS011;62581;47.342;7.908;2023-10-13T02:25:36;11.30;;;5.60;;
48835;SDS011;62581;47.342;7.908;2023-10-13T02:28:11;11.40;;;5.53;;
48835;SDS011;62581;47.342;7.908;2023-10-13T02:33:13;11.70;;;4.93;;
48835;SDS011;62581;47.342;7.908;2023-10-13T02:35:46;11.23;;;5.50;;
48835;SDS011;62581;47.342;7.908;2023-10-13T02:38:18;8.98;;;5.05;;
48835;SDS011;62581;47.342;7.908;2023-10-13T02:40:53;9.55;;;5.55;;
48835;SDS011;62581;47.342;7.908;2023-10-13T02:43:21;9.52;;;5.22;;
48835;SDS011;62581;47.342;7.908;2023-10-13T02:45:55;10.88;;;4.78;;
48835;SDS011;62581;47.342;7.908;2023-10-13T02:48:25;8.13;;;4.90;;
48835;SDS011;62581;47.342;7.908;2023-10-13T02:50:55;13.45;;;5.68;;
48835;SDS011;62581;47.342;7.908;2023-10-13T02:53:27;12.93;;;5.88;;
48835;SDS011;62581;47.342;7.908;2023-10-13T02:55:54;9.15;;;5.10;;
48835;SDS011;62581;47.342;7.908;2023-10-13T02:58:23;10.75;;;5.25;;
48835;SDS011;62581;47.342;7.908;2023-10-13T03:01:06;11.13;;;5.80;;
48835;SDS011;62581;47.342;7.908;2023-10-13T03:03:42;10.40;;;5.72;;
48835;SDS011;62581;47.342;7.908;2023-10-13T03:06:16;9.07;;;4.80;;
48835;SDS011;62581;47.342;7.908;2023-10-13T03:08:47;18.00;;;6.07;;
48835;SDS011;62581;47.342;7.908;2023-10-13T03:11:13;11.32;;;5.43;;
48835;SDS011;62581;47.342;7.908;2023-10-13T03:13:45;12.13;;;5.70;;
48835;SDS011;62581;47.342;7.908;2023-10-13T03:16:13;13.77;;;6.03;;
48835;SDS011;62581;47.342;7.908;2023-10-13T03:18:43;15.02;;;6.40;;
48835;SDS011;62581;47.342;7.908;2023-10-13T03:21:19;15.98;;;6.22;;
48835;SDS011;62581;47.342;7.908;2023-10-13T03:23:54;15.95;;;5.82;;
48835;SDS011;62581;47.342;7.908;2023-10-13T03:26:29;10.85;;;5.82;;
48835;SDS011;62581;47.342;7.908;2023-10-13T03:29:00;12.30;;;5.93;;
48835;SDS011;62581;47.342;7.908;2023-10-13T03:31:29;13.77;;;5.80;;
48835;SDS011;62581;47.342;7.908;2023-10-13T03:34:02;17.63;;;5.60;;
48835;SDS011;62581;47.342;7.908;2023-10-13T03:36:34;15.70;;;5.97;;
48835;SDS011;62581;47.342;7.908;2023-10-13T03:39:18;10.23;;;5.35;;
48835;SDS011;62581;47.342;7.908;2023-10-13T03:41:48;15.00;;;6.15;;
48835;SDS011;62581;47.342;7.908;2023-10-13T03:44:18;15.38;;;5.68;;
48835;SDS011;62581;47.342;7.908;2023-10-13T03:46:47;13.30;;;5.25;;
48835;SDS011;62581;47.342;7.908;2023-10-13T03:49:14;11.82;;;5.32;;
48835;SDS011;62581;47.342;7.908;2023-10-13T03:51:47;13.48;;;5.57;;
48835;SDS011;62581;47.342;7.908;2023-10-13T03:54:14;10.20;;;5.40;;
48835;SDS011;62581;47.342;7.908;2023-10-13T03:56:42;8.93;;;4.90;;
48835;SDS011;62581;47.342;7.908;2023-10-13T03:59:10;12.80;;;5.33;;
48835;SDS011;62581;47.342;7.908;2023-10-13T04:01:43;9.65;;;5.47;;
48835;SDS011;62581;47.342;7.908;2023-10-13T04:04:24;18.52;;;5.90;;
48835;SDS011;62581;47.342;7.908;2023-10-13T04:07:07;14.20;;;5.68;;
48835;SDS011;62581;47.342;7.908;2023-10-13T04:10:00;11.55;;;5.75;;
48835;SDS011;62581;47.342;7.908;2023-10-13T04:12:57;14.38;;;6.00;;
48835;SDS011;62581;47.342;7.908;2023-10-13T04:15:56;9.57;;;5.55;;
48835;SDS011;62581;47.342;7.908;2023-10-13T04:18:59;13.85;;;6.00;;
48835;SDS011;62581;47.342;7.908;2023-10-13T04:21:35;13.82;;;5.68;;
48835;SDS011;62581;47.342;7.908;2023-10-13T04:24:07;10.55;;;6.10;;
48835;SDS011;62581;47.342;7.908;2023-10-13T04:26:48;23.92;;;6.10;;
48835;SDS011;62581;47.342;7.908;2023-10-13T04:29:43;14.27;;;5.78;;
48835;SDS011;62581;47.342;7.908;2023-10-13T04:32:18;15.57;;;6.50;;
48835;SDS011;62581;47.342;7.908;2023-10-13T04:34:55;17.42;;;5.68;;
48835;SDS011;62581;47.342;7.908;2023-10-13T04:37:26;15.68;;;6.18;;
48835;SDS011;62581;47.342;7.908;2023-10-13T04:39:55;12.63;;;5.75;;
48835;SDS011;62581;47.342;7.908;2023-10-13T04:42:34;15.45;;;5.80;;
48835;SDS011;62581;47.342;7.908;2023-10-13T04:45:15;11.00;;;5.68;;
48835;SDS011;62581;47.342;7.908;2023-10-13T04:48:04;15.48;;;5.40;;
48835;SDS011;62581;47.342;7.908;2023-10-13T04:50:58;15.50;;;6.80;;
48835;SDS011;62581;47.342;7.908;2023-10-13T04:53:46;13.88;;;5.53;;
48835;SDS011;62581;47.342;7.908;2023-10-13T04:56:38;9.57;;;5.95;;
48835;SDS011;62581;47.342;7.908;2023-10-13T04:59:18;14.80;;;6.40;;
48835;SDS011;62581;47.342;7.908;2023-10-13T05:02:01;13.55;;;6.95;;
48835;SDS011;62581;47.342;7.908;2023-10-13T05:04:45;13.40;;;6.85;;
48835;SDS011;62581;47.342;7.908;2023-10-13T05:07:38;12.90;;;5.47;;
48835;SDS011;62581;47.342;7.908;2023-10-13T05:10:24;14.02;;;5.93;;
48835;SDS011;62581;47.342;7.908;2023-10-13T05:13:08;17.55;;;5.82;;
48835;SDS011;62581;47.342;7.908;2023-10-13T05:15:53;14.40;;;6.45;;
48835;SDS011;62581;47.342;7.908;2023-10-13T05:18:37;15.50;;;5.80;;
48835;SDS011;62581;47.342;7.908;2023-10-13T05:21:22;11.18;;;6.20;;
48835;SDS011;62581;47.342;7.908;2023-10-13T05:24:06;11.75;;;6.68;;
48835;SDS011;62581;47.342;7.908;2023-10-13T05:26:53;13.65;;;5.93;;
48835;SDS011;62581;47.342;7.908;2023-10-13T05:29:38;13.07;;;5.75;;
48835;SDS011;62581;47.342;7.908;2023-10-13T05:32:23;12.80;;;5.65;;
48835;SDS011;62581;47.342;7.908;2023-10-13T05:35:08;20.70;;;8.20;;
48835;SDS011;62581;47.342;7.908;2023-10-13T05:37:53;15.32;;;6.10;;
48835;SDS011;62581;47.342;7.908;2023-10-13T05:40:37;14.23;;;5.68;;
48835;SDS011;62581;47.342;7.908;2023-10-13T05:43:23;12.05;;;6.00;;
48835;SDS011;62581;47.342;7.908;2023-10-13T05:46:07;12.80;;;5.55;;
48835;SDS011;62581;47.342;7.908;2023-10-13T05:48:51;15.98;;;6.47;;
48835;SDS011;62581;47.342;7.908;2023-10-13T05:51:45;15.73;;;5.55;;
48835;SDS011;62581;47.342;7.908;2023-10-13T05:54:13;14.77;;;5.75;;
48835;SDS011;62581;47.342;7.908;2023-10-13T05:56:57;12.60;;;5.32;;
48835;SDS011;62581;47.342;7.908;2023-10-13T05:59:43;16.88;;;6.00;;
48835;SDS011;62581;47.342;7.908;2023-10-13T06:02:28;14.68;;;5.35;;
48835;SDS011;62581;47.342;7.908;2023-10-13T06:05:12;10.50;;;5.38;;
48835;SDS011;62581;47.342;7.908;2023-10-13T06:08:03;11.85;;;6.40;;
48835;SDS011;62581;47.342;7.908;2023-10-13T06:10:48;11.15;;;5.68;;
48835;SDS011;62581;47.342;7.908;2023-10-13T06:13:32;15.93;;;6.72;;
48835;SDS011;62581;47.342;7.908;2023-10-13T06:16:18;14.40;;;6.45;;
48835;SDS011;62581;47.342;7.908;2023-10-13T06:19:02;14.48;;;5.90;;
48835;SDS011;62581;47.342;7.908;2023-10-13T06:21:47;14.32;;;5.57;;
48835;SDS011;62581;47.342;7.908;2023-10-13T06:24:46;13.43;;;5.28;;
48835;SDS011;62581;47.342;7.908;2023-10-13T06:27:30;14.80;;;6.28;;
48835;SDS011;62581;47.342;7.908;2023-10-13T06:30:15;17.73;;;5.65;;
48835;SDS011;62581;47.342;7.908;2023-10-13T06:32:44;14.40;;;5.68;;
48835;SDS011;62581;47.342;7.908;2023-10-13T06:35:11;12.27;;;5.38;;
48835;SDS011;62581;47.342;7.908;2023-10-13T06:37:48;13.15;;;6.53;;
48835;SDS011;62581;47.342;7.908;2023-10-13T06:40:15;20.13;;;6.07;;
48835;SDS011;62581;47.342;7.908;2023-10-13T06:42:50;16.92;;;6.03;;
48835;SDS011;62581;47.342;7.908;2023-10-13T06:45:18;20.05;;;6.03;;
48835;SDS011;62581;47.342;7.908;2023-10-13T06:47:48;19.40;;;5.88;;
48835;SDS011;62581;47.342;7.908;2023-10-13T06:50:18;15.30;;;5.97;;
48835;SDS011;62581;47.342;7.908;2023-10-13T06:52:49;10.60;;;5.05;;
48835;SDS011;62581;47.342;7.908;2023-10-13T06:55:20;15.63;;;5.68;;
48835;SDS011;62581;47.342;7.908;2023-10-13T06:57:52;14.68;;;6.28;;
48835;SDS011;62581;47.342;7.908;2023-10-13T07:00:24;13.82;;;6.03;;
48835;SDS011;62581;47.342;7.908;2023-10-13T07:02:56;16.83;;;5.95;;
48835;SDS011;62581;47.342;7.908;2023-10-13T07:05:33;15.43;;;5.45;;
48835;SDS011;62581;47.342;7.908;2023-10-13T07:08:04;13.75;;;4.93;;
48835;SDS011;62581;47.342;7.908;2023-10-13T07:10:31;15.00;;;6.15;;
48835;SDS011;62581;47.342;7.908;2023-10-13T07:13:10;18.40;;;6.35;;
48835;SDS011;62581;47.342;7.908;2023-10-13T07:18:11;13.90;;;5.70;;
48835;SDS011;62581;47.342;7.908;2023-10-13T07:20:40;13.65;;;5.45;;
48835;SDS011;62581;47.342;7.908;2023-10-13T07:23:10;14.32;;;6.05;;
48835;SDS011;62581;47.342;7.908;2023-10-13T07:25:42;13.52;;;5.47;;
48835;SDS011;62581;47.342;7.908;2023-10-13T07:28:18;16.35;;;6.07;;
48835;SDS011;62581;47.342;7.908;2023-10-13T07:30:45;19.65;;;6.65;;
48835;SDS011;62581;47.342;7.908;2023-10-13T07:33:37;15.85;;;5.50;;
48835;SDS011;62581;47.342;7.908;2023-10-13T07:36:06;14.20;;;6.18;;
48835;SDS011;62581;47.342;7.908;2023-10-13T07:38:41;12.55;;;5.47;;
48835;SDS011;62581;47.342;7.908;2023-10-13T07:41:09;15.95;;;5.32;;
48835;SDS011;62581;47.342;7.908;2023-10-13T07:43:41;23.25;;;6.35;;
48835;SDS011;62581;47.342;7.908;2023-10-13T07:46:10;15.00;;;5.95;;
48835;SDS011;62581;47.342;7.908;2023-10-13T07:48:39;16.88;;;5.90;;
48835;SDS011;62581;47.342;7.908;2023-10-13T07:51:10;15.80;;;6.18;;
48835;SDS011;62581;47.342;7.908;2023-10-13T07:53:41;19.45;;;5.60;;
48835;SDS011;62581;47.342;7.908;2023-10-13T07:56:08;14.35;;;5.93;;
48835;SDS011;62581;47.342;7.908;2023-10-13T07:58:37;13.05;;;5.72;;
48835;SDS011;62581;47.342;7.908;2023-10-13T08:01:12;12.98;;;5.65;;
48835;SDS011;62581;47.342;7.908;2023-10-13T08:03:45;13.90;;;5.72;;
48835;SDS011;62581;47.342;7.908;2023-10-13T08:06:11;17.63;;;6.38;;
48835;SDS011;62581;47.342;7.908;2023-10-13T08:08:46;14.90;;;5.97;;
48835;SDS011;62581;47.342;7.908;2023-10-13T08:11:18;11.05;;;6.20;;
48835;SDS011;62581;47.342;7.908;2023-10-13T08:13:52;13.35;;;7.45;;
48835;SDS011;62581;47.342;7.908;2023-10-13T08:16:21;15.05;;;5.32;;
48835;SDS011;62581;47.342;7.908;2023-10-13T08:18:54;11.73;;;5.13;;
48835;SDS011;62581;47.342;7.908;2023-10-13T08:21:22;12.05;;;4.63;;
48835;SDS011;62581;47.342;7.908;2023-10-13T08:23:49;13.10;;;4.35;;
48835;SDS011;62581;47.342;7.908;2023-10-13T08:26:31;9.45;;;4.75;;
48835;SDS011;62581;47.342;7.908;2023-10-13T08:29:12;10.98;;;4.85;;
48835;SDS011;62581;47.342;7.908;2023-10-13T08:32:11;10.77;;;4.40;;
48835;SDS011;62581;47.342;7.908;2023-10-13T08:34:49;14.05;;;4.93;;
48835;SDS011;62581;47.342;7.908;2023-10-13T08:37:34;17.48;;;4.45;;
48835;SDS011;62581;47.342;7.908;2023-10-13T08:40:12;10.40;;;4.88;;
48835;SDS011;62581;47.342;7.908;2023-10-13T08:43:02;10.38;;;4.60;;
48835;SDS011;62581;47.342;7.908;2023-10-13T08:45:38;14.05;;;4.10;;
48835;SDS011;62581;47.342;7.908;2023-10-13T08:48:23;8.63;;;3.83;;
48835;SDS011;62581;47.342;7.908;2023-10-13T08:50:58;10.60;;;3.90;;
48835;SDS011;62581;47.342;7.908;2023-10-13T08:53:34;9.60;;;4.07;;
48835;SDS011;62581;47.342;7.908;2023-10-13T08:56:09;9.27;;;4.13;;
48835;SDS011;62581;47.342;7.908;2023-10-13T08:58:42;11.25;;;5.05;;
48835;SDS011;62581;47.342;7.908;2023-10-13T09:01:28;13.15;;;4.63;;
48835;SDS011;62581;47.342;7.908;2023-10-13T09:04:05;10.25;;;4.70;;
48835;SDS011;62581;47.342;7.908;2023-10-13T09:06:49;21.00;;;4.68;;
48835;SDS011;62581;47.342;7.908;2023-10-13T09:09:46;13.68;;;4.45;;
48835;SDS011;62581;47.342;7.908;2023-10-13T09:12:36;7.95;;;3.65;;
48835;SDS011;62581;47.342;7.908;2023-10-13T09:15:05;10.60;;;4.40;;
48835;SDS011;62581;47.342;7.908;2023-10-13T09:17:45;14.07;;;4.28;;
48835;SDS011;62581;47.342;7.908;2023-10-13T09:20:16;16.05;;;4.05;;
48835;SDS011;62581;47.342;7.908;2023-10-13T09:22:59;8.02;;;3.80;;
48835;SDS011;62581;47.342;7.908;2023-10-13T09:25:38;10.38;;;3.97;;
48835;SDS011;62581;47.342;7.908;2023-10-13T09:28:18;13.38;;;4.05;;
48835;SDS011;62581;47.342;7.908;2023-10-13T09:30:50;11.18;;;4.25;;
48835;SDS011;62581;47.342;7.908;2023-10-13T09:33:19;11.32;;;4.50;;
48835;SDS011;62581;47.342;7.908;2023-10-13T09:35:53;16.95;;;4.93;;
48835;SDS011;62581;47.342;7.908;2023-10-13T09:38:21;11.02;;;4.55;;
48835;SDS011;62581;47.342;7.908;2023-10-13T09:40:48;9.02;;;3.67;;
48835;SDS011;62581;47.342;7.908;2023-10-13T09:43:18;8.68;;;3.30;;
48835;SDS011;62581;47.342;7.908;2023-10-13T09:45:46;11.35;;;3.80;;
48835;SDS011;62581;47.342;7.908;2023-10-13T09:48:30;11.35;;;3.70;;
48835;SDS011;62581;47.342;7.908;2023-10-13T09:50:59;9.38;;;3.70;;
48835;SDS011;62581;47.342;7.908;2023-10-13T09:53:30;12.32;;;3.95;;
48835;SDS011;62581;47.342;7.908;2023-10-13T09:55:58;9.63;;;3.78;;
48835;SDS011;62581;47.342;7.908;2023-10-13T09:58:38;12.45;;;4.07;;
48835;SDS011;62581;47.342;7.908;2023-10-13T10:01:14;23.40;;;4.72;;
48835;SDS011;62581;47.342;7.908;2023-10-13T10:03:47;9.50;;;4.03;;
48835;SDS011;62581;47.342;7.908;2023-10-13T10:06:21;10.32;;;3.38;;
48835;SDS011;62581;47.342;7.908;2023-10-13T10:09:05;10.15;;;3.80;;
48835;SDS011;62581;47.342;7.908;2023-10-13T10:11:59;11.80;;;4.07;;
48835;SDS011;62581;47.342;7.908;2023-10-13T10:14:42;8.02;;;3.75;;
48835;SDS011;62581;47.342;7.908;2023-10-13T10:17:27;16.35;;;3.50;;
48835;SDS011;62581;47.342;7.908;2023-10-13T10:19:58;6.88;;;3.30;;
48835;SDS011;62581;47.342;7.908;2023-10-13T10:22:31;8.63;;;3.45;;
48835;SDS011;62581;47.342;7.908;2023-10-13T10:25:02;9.40;;;3.28;;
48835;SDS011;62581;47.342;7.908;2023-10-13T10:27:53;7.38;;;3.08;;
48835;SDS011;62581;47.342;7.908;2023-10-13T10:30:23;8.63;;;3.70;;
48835;SDS011;62581;47.342;7.908;2023-10-13T10:32:53;15.68;;;3.80;;
48835;SDS011;62581;47.342;7.908;2023-10-13T10:35:24;6.38;;;3.60;;
48835;SDS011;62581;47.342;7.908;2023-10-13T10:37:55;6.18;;;2.95;;
48835;SDS011;62581;47.342;7.908;2023-10-13T10:40:47;6.22;;;2.72;;
48835;SDS011;62581;47.342;7.908;2023-10-13T10:43:17;9.77;;;3.13;;
48835;SDS011;62581;47.342;7.908;2023-10-13T10:48:13;8.80;;;3.13;;
48835;SDS011;62581;47.342;7.908;2023-10-13T10:50:43;10.90;;;3.50;;
48835;SDS011;62581;47.342;7.908;2023-10-13T10:53:12;7.47;;;2.97;;
48835;SDS011;62581;47.342;7.908;2023-10-13T10:55:40;7.55;;;2.85;;
48835;SDS011;62581;47.342;7.908;2023-10-13T10:58:07;11.32;;;3.42;;
48835;SDS011;62581;47.342;7.908;2023-10-13T11:01:03;9.70;;;3.00;;
48835;SDS011;62581;47.342;7.908;2023-10-13T11:03:35;12.90;;;3.20;;
48835;SDS011;62581;47.342;7.908;2023-10-13T11:06:07;8.70;;;3.67;;
48835;SDS011;62581;47.342;7.908;2023-10-13T11:08:42;4.95;;;3.10;;
48835;SDS011;62581;47.342;7.908;2023-10-13T11:11:17;9.45;;;3.00;;
48835;SDS011;62581;47.342;7.908;2023-10-13T11:13:55;10.23;;;3.60;;
48835;SDS011;62581;47.342;7.908;2023-10-13T11:16:44;7.45;;;2.75;;
48835;SDS011;62581;47.342;7.908;2023-10-13T11:19:15;7.30;;;2.92;;
48835;SDS011;62581;47.342;7.908;2023-10-13T11:21:45;8.18;;;2.67;;
48835;SDS011;62581;47.342;7.908;2023-10-13T11:24:12;6.35;;;2.65;;
48835;SDS011;62581;47.342;7.908;2023-10-13T11:26:44;3.47;;;2.53;;
48835;SDS011;62581;47.342;7.908;2023-10-13T11:29:15;5.45;;;2.67;;
48835;SDS011;62581;47.342;7.908;2023-10-13T11:31:45;9.65;;;3.17;;
48835;SDS011;62581;47.342;7.908;2023-10-13T11:34:18;10.57;;;3.17;;
48835;SDS011;62581;47.342;7.908;2023-10-13T11:36:46;7.50;;;2.88;;
48835;SDS011;62581;47.342;7.908;2023-10-13T11:39:13;5.95;;;2.78;;
48835;SDS011;62581;47.342;7.908;2023-10-13T11:41:45;10.38;;;2.95;;
48835;SDS011;62581;47.342;7.908;2023-10-13T11:44:19;7.43;;;2.90;;
48835;SDS011;62581;47.342;7.908;2023-10-13T11:46:51;5.95;;;2.50;;
48835;SDS011;62581;47.342;7.908;2023-10-13T11:49:21;7.97;;;2.50;;
48835;SDS011;62581;47.342;7.908;2023-10-13T11:52:05;7.60;;;2.60;;
48835;SDS011;62581;47.342;7.908;2023-10-13T11:54:41;8.63;;;2.90;;
48835;SDS011;62581;47.342;7.908;2023-10-13T11:57:10;7.35;;;2.70;;
48835;SDS011;62581;47.342;7.908;2023-10-13T12:02:20;6.78;;;3.00;;
48835;SDS011;62581;47.342;7.908;2023-10-13T12:05:05;8.45;;;2.97;;
48835;SDS011;62581;47.342;7.908;2023-10-13T12:07:52;9.73;;;2.80;;
48835;SDS011;62581;47.342;7.908;2023-10-13T12:10:28;5.72;;;2.47;;
48835;SDS011;62581;47.342;7.908;2023-10-13T12:13:15;6.38;;;3.10;;
48835;SDS011;62581;47.342;7.908;2023-10-13T12:15:42;9.13;;;3.45;;
48835;SDS011;62581;47.342;7.908;2023-10-13T12:18:17;10.52;;;2.78;;
48835;SDS011;62581;47.342;7.908;2023-10-13T12:20:47;6.28;;;2.40;;
48835;SDS011;62581;47.342;7.908;2023-10-13T12:23:14;6.53;;;1.92;;
48835;SDS011;62581;47.342;7.908;2023-10-13T12:25:42;8.93;;;2.65;;
48835;SDS011;62581;47.342;7.908;2023-10-13T12:28:27;8.23;;;2.75;;
48835;SDS011;62581;47.342;7.908;2023-10-13T12:30:56;11.55;;;2.90;;
48835;SDS011;62581;47.342;7.908;2023-10-13T12:33:32;9.00;;;2.80;;
48835;SDS011;62581;47.342;7.908;2023-10-13T12:36:03;7.95;;;3.10;;
48835;SDS011;62581;47.342;7.908;2023-10-13T12:38:34;11.70;;;3.03;;
48835;SDS011;62581;47.342;7.908;2023-10-13T12:41:37;7.75;;;2.47;;
48835;SDS011;62581;47.342;7.908;2023-10-13T12:44:22;6.80;;;2.53;;
48835;SDS011;62581;47.342;7.908;2023-10-13T12:47:08;14.15;;;2.67;;
48835;SDS011;62581;47.342;7.908;2023-10-13T12:49:52;8.48;;;2.42;;
48835;SDS011;62581;47.342;7.908;2023-10-13T12:52:25;6.68;;;2.50;;
48835;SDS011;62581;47.342;7.908;2023-10-13T12:54:52;9.30;;;2.90;;
48835;SDS011;62581;47.342;7.908;2023-10-13T12:57:31;11.90;;;2.53;;
48835;SDS011;62581;47.342;7.908;2023-10-13T13:00:00;9.32;;;2.63;;
48835;SDS011;62581;47.342;7.908;2023-10-13T13:02:41;6.88;;;2.35;;
48835;SDS011;62581;47.342;7.908;2023-10-13T13:05:08;8.50;;;2.55;;
48835;SDS011;62581;47.342;7.908;2023-10-13T13:07:38;6.45;;;2.45;;
48835;SDS011;62581;47.342;7.908;2023-10-13T13:10:12;8.88;;;2.50;;
48835;SDS011;62581;47.342;7.908;2023-10-13T13:12:40;8.30;;;2.55;;
48835;SDS011;62581;47.342;7.908;2023-10-13T13:15:09;10.80;;;2.20;;
48835;SDS011;62581;47.342;7.908;2023-10-13T13:17:37;5.88;;;2.65;;
48835;SDS011;62581;47.342;7.908;2023-10-13T13:22:36;6.38;;;2.38;;
48835;SDS011;62581;47.342;7.908;2023-10-13T13:25:04;9.98;;;2.50;;
48835;SDS011;62581;47.342;7.908;2023-10-13T13:27:35;8.20;;;2.40;;
48835;SDS011;62581;47.342;7.908;2023-10-13T13:30:07;6.15;;;2.35;;
48835;SDS011;62581;47.342;7.908;2023-10-13T13:32:38;7.28;;;2.72;;
48835;SDS011;62581;47.342;7.908;2023-10-13T13:37:34;6.82;;;2.33;;
48835;SDS011;62581;47.342;7.908;2023-10-13T13:40:03;15.15;;;2.80;;
48835;SDS011;62581;47.342;7.908;2023-10-13T13:42:39;8.70;;;2.45;;
48835;SDS011;62581;47.342;7.908;2023-10-13T13:45:12;7.97;;;2.85;;
48835;SDS011;62581;47.342;7.908;2023-10-13T13:47:52;9.48;;;2.40;;
48835;SDS011;62581;47.342;7.908;2023-10-13T13:50:20;23.60;;;3.05;;
48835;SDS011;62581;47.342;7.908;2023-10-13T13:52:52;10.32;;;2.78;;
48835;SDS011;62581;47.342;7.908;2023-10-13T13:55:21;8.23;;;2.63;;
48835;SDS011;62581;47.342;7.908;2023-10-13T13:57:48;7.65;;;2.63;;
48835;SDS011;62581;47.342;7.908;2023-10-13T14:00:17;6.82;;;2.38;;
48835;SDS011;62581;47.342;7.908;2023-10-13T14:02:48;8.77;;;2.85;;
48835;SDS011;62581;47.342;7.908;2023-10-13T14:05:15;12.23;;;3.05;;
48835;SDS011;62581;47.342;7.908;2023-10-13T14:07:43;10.48;;;3.03;;
48835;SDS011;62581;47.342;7.908;2023-10-13T14:10:14;14.25;;;2.50;;
48835;SDS011;62581;47.342;7.908;2023-10-13T14:12:57;6.28;;;2.78;;
48835;SDS011;62581;47.342;7.908;2023-10-13T14:15:33;8.93;;;2.58;;
48835;SDS011;62581;47.342;7.908;2023-10-13T14:18:09;7.38;;;2.50;;
48835;SDS011;62581;47.342;7.908;2023-10-13T14:20:40;5.57;;;1.95;;
48835;SDS011;62581;47.342;7.908;2023-10-13T14:23:07;5.82;;;2.67;;
48835;SDS011;62581;47.342;7.908;2023-10-13T14:25:37;7.47;;;2.17;;
48835;SDS011;62581;47.342;7.908;2023-10-13T14:28:09;12.70;;;2.53;;
48835;SDS011;62581;47.342;7.908;2023-10-13T14:30:43;8.25;;;2.90;;
48835;SDS011;62581;47.342;7.908;2023-10-13T14:33:11;5.20;;;2.42;;
48835;SDS011;62581;47.342;7.908;2023-10-13T14:35:38;6.83;;;2.13;;
48835;SDS011;62581;47.342;7.908;2023-10-13T14:38:05;7.05;;;2.45;;
48835;SDS011;62581;47.342;7.908;2023-10-13T14:40:32;5.20;;;2.33;;
48835;SDS011;62581;47.342;7.908;2023-10-13T14:42:59;10.57;;;2.35;;
48835;SDS011;62581;47.342;7.908;2023-10-13T14:45:26;4.95;;;2.03;;
48835;SDS011;62581;47.342;7.908;2023-10-13T14:47:54;3.92;;;2.40;;
48835;SDS011;62581;47.342;7.908;2023-10-13T14:50:21;5.43;;;2.20;;
48835;SDS011;62581;47.342;7.908;2023-10-13T14:52:50;5.03;;;2.00;;
48835;SDS011;62581;47.342;7.908;2023-10-13T14:55:17;5.50;;;2.38;;
48835;SDS011;62581;47.342;7.908;2023-10-13T14:57:55;7.97;;;2.65;;
48835;SDS011;62581;47.342;7.908;2023-10-13T15:00:22;9.93;;;2.60;;
48835;SDS011;62581;47.342;7.908;2023-10-13T15:02:52;7.55;;;2.60;;
48835;SDS011;62581;47.342;7.908;2023-10-13T15:05:21;7.47;;;1.90;;
48835;SDS011;62581;47.342;7.908;2023-10-13T15:07:48;7.03;;;2.50;;
48835;SDS011;62581;47.342;7.908;2023-10-13T15:10:16;5.43;;;2.30;;
48835;SDS011;62581;47.342;7.908;2023-10-13T15:12:43;6.03;;;2.13;;
48835;SDS011;62581;47.342;7.908;2023-10-13T15:15:10;5.22;;;2.38;;
48835;SDS011;62581;47.342;7.908;2023-10-13T15:17:41;5.25;;;2.20;;
48835;SDS011;62581;47.342;7.908;2023-10-13T15:20:08;9.90;;;2.78;;
48835;SDS011;62581;47.342;7.908;2023-10-13T15:22:42;4.63;;;2.22;;
48835;SDS011;62581;47.342;7.908;2023-10-13T15:25:09;8.50;;;2.40;;
48835;SDS011;62581;47.342;7.908;2023-10-13T15:27:46;7.10;;;2.35;;
48835;SDS011;62581;47.342;7.908;2023-10-13T15:30:20;6.45;;;2.42;;
48835;SDS011;62581;47.342;7.908;2023-10-13T15:32:51;6.75;;;2.60;;
48835;SDS011;62581;47.342;7.908;2023-10-13T15:37:50;5.13;;;2.53;;
48835;SDS011;62581;47.342;7.908;2023-10-13T15:40:18;14.93;;;2.90;;
48835;SDS011;62581;47.342;7.908;2023-10-13T15:42:45;8.32;;;2.83;;
48835;SDS011;62581;47.342;7.908;2023-10-13T15:45:12;6.40;;;2.65;;